sensor_id;sensor_type;location;lat;lon;timestamp;P1;durP1;ratioP1;P2;durP2;ratioP2
20896;SDS011;10608;42.600;23.398;2023-04-22T00:01:16;16.83;;;16.13;;
20896;SDS011;10608;42.600;23.398;2023-04-22T00:03:42;15.30;;;14.70;;
20896;SDS011;10608;42.600;23.398;2023-04-22T00:06:08;17.63;;;16.93;;
20896;SDS011;10608;42.600;23.398;2023-04-22T00:08:34;17.20;;;16.47;;
20896;SDS011;10608;42.600;23.398;2023-04-22T00:10:59;20.00;;;19.20;;
20896;SDS011;10608;42.600;23.398;2023-04-22T00:13:25;22.10;;;21.20;;
20896;SDS011;10608;42.600;23.398;2023-04-22T00:15:50;21.37;;;20.37;;
20896;SDS011;10608;42.600;23.398;2023-04-22T00:18:15;30.83;;;29.53;;
20896;SDS011;10608;42.600;23.398;2023-04-22T00:20:41;34.00;;;32.63;;
20896;SDS011;10608;42.600;23.398;2023-04-22T00:23:07;22.30;;;21.40;;
20896;SDS011;10608;42.600;23.398;2023-04-22T00:25:33;18.80;;;18.03;;
20896;SDS011;10608;42.600;23.398;2023-04-22T00:27:58;19.23;;;18.43;;
20896;SDS011;10608;42.600;23.398;2023-04-22T00:30:23;16.20;;;15.60;;
20896;SDS011;10608;42.600;23.398;2023-04-22T00:32:48;16.10;;;15.50;;
20896;SDS011;10608;42.600;23.398;2023-04-22T00:35:14;14.73;;;14.13;;
20896;SDS011;10608;42.600;23.398;2023-04-22T00:37:39;16.13;;;15.53;;
20896;SDS011;10608;42.600;23.398;2023-04-22T00:40:04;22.37;;;21.47;;
20896;SDS011;10608;42.600;23.398;2023-04-22T00:42:30;21.67;;;20.80;;
20896;SDS011;10608;42.600;23.398;2023-04-22T00:44:56;19.73;;;18.90;;
20896;SDS011;10608;42.600;23.398;2023-04-22T00:47:21;20.47;;;19.67;;
20896;SDS011;10608;42.600;23.398;2023-04-22T00:49:50;24.00;;;23.00;;
20896;SDS011;10608;42.600;23.398;2023-04-22T00:52:16;23.23;;;22.33;;
20896;SDS011;10608;42.600;23.398;2023-04-22T00:54:41;16.50;;;15.87;;
20896;SDS011;10608;42.600;23.398;2023-04-22T00:57:06;15.27;;;14.67;;
20896;SDS011;10608;42.600;23.398;2023-04-22T00:59:31;14.90;;;14.30;;
20896;SDS011;10608;42.600;23.398;2023-04-22T01:01:57;13.23;;;12.73;;
20896;SDS011;10608;42.600;23.398;2023-04-22T01:04:22;18.33;;;17.53;;
20896;SDS011;10608;42.600;23.398;2023-04-22T01:06:48;16.93;;;16.23;;
20896;SDS011;10608;42.600;23.398;2023-04-22T01:09:13;18.63;;;17.90;;
20896;SDS011;10608;42.600;23.398;2023-04-22T01:11:38;18.83;;;18.03;;
20896;SDS011;10608;42.600;23.398;2023-04-22T01:14:04;18.37;;;17.47;;
20896;SDS011;10608;42.600;23.398;2023-04-22T01:16:29;25.57;;;24.53;;
20896;SDS011;10608;42.600;23.398;2023-04-22T01:18:58;32.37;;;31.00;;
20896;SDS011;10608;42.600;23.398;2023-04-22T01:21:23;20.43;;;19.63;;
20896;SDS011;10608;42.600;23.398;2023-04-22T01:23:48;21.90;;;21.00;;
20896;SDS011;10608;42.600;23.398;2023-04-22T01:26:14;22.73;;;21.83;;
20896;SDS011;10608;42.600;23.398;2023-04-22T01:28:39;21.00;;;20.10;;
20896;SDS011;10608;42.600;23.398;2023-04-22T01:31:04;21.97;;;21.07;;
20896;SDS011;10608;42.600;23.398;2023-04-22T01:33:30;26.10;;;24.93;;
20896;SDS011;10608;42.600;23.398;2023-04-22T01:35:55;29.87;;;28.60;;
20896;SDS011;10608;42.600;23.398;2023-04-22T01:38:20;29.17;;;27.97;;
20896;SDS011;10608;42.600;23.398;2023-04-22T01:40:46;24.57;;;23.57;;
20896;SDS011;10608;42.600;23.398;2023-04-22T01:43:11;25.10;;;24.10;;
20896;SDS011;10608;42.600;23.398;2023-04-22T01:45:36;24.97;;;23.97;;
20896;SDS011;10608;42.600;23.398;2023-04-22T01:48:01;22.63;;;21.73;;
20896;SDS011;10608;42.600;23.398;2023-04-22T01:50:27;25.73;;;24.70;;
20896;SDS011;10608;42.600;23.398;2023-04-22T01:52:52;29.93;;;28.63;;
20896;SDS011;10608;42.600;23.398;2023-04-22T01:55:17;29.53;;;28.33;;
20896;SDS011;10608;42.600;23.398;2023-04-22T01:57:42;23.43;;;22.33;;
20896;SDS011;10608;42.600;23.398;2023-04-22T02:00:08;20.73;;;19.93;;
20896;SDS011;10608;42.600;23.398;2023-04-22T02:02:33;24.60;;;23.60;;
20896;SDS011;10608;42.600;23.398;2023-04-22T02:04:59;23.70;;;22.77;;
20896;SDS011;10608;42.600;23.398;2023-04-22T02:07:24;21.83;;;20.93;;
20896;SDS011;10608;42.600;23.398;2023-04-22T02:09:50;23.53;;;22.60;;
20896;SDS011;10608;42.600;23.398;2023-04-22T02:12:15;21.80;;;20.93;;
20896;SDS011;10608;42.600;23.398;2023-04-22T02:14:40;25.53;;;24.40;;
20896;SDS011;10608;42.600;23.398;2023-04-22T02:17:05;29.53;;;28.33;;
20896;SDS011;10608;42.600;23.398;2023-04-22T02:19:30;21.10;;;20.30;;
20896;SDS011;10608;42.600;23.398;2023-04-22T02:21:56;19.43;;;18.63;;
20896;SDS011;10608;42.600;23.398;2023-04-22T02:24:21;17.90;;;17.10;;
20896;SDS011;10608;42.600;23.398;2023-04-22T02:26:46;24.17;;;23.17;;
20896;SDS011;10608;42.600;23.398;2023-04-22T02:29:13;27.60;;;26.50;;
20896;SDS011;10608;42.600;23.398;2023-04-22T02:31:38;26.93;;;25.80;;
20896;SDS011;10608;42.600;23.398;2023-04-22T02:34:03;30.97;;;29.57;;
20896;SDS011;10608;42.600;23.398;2023-04-22T02:36:29;22.47;;;21.57;;
20896;SDS011;10608;42.600;23.398;2023-04-22T02:38:56;25.87;;;24.80;;
20896;SDS011;10608;42.600;23.398;2023-04-22T02:41:21;22.50;;;21.60;;
20896;SDS011;10608;42.600;23.398;2023-04-22T02:43:46;23.27;;;22.33;;
20896;SDS011;10608;42.600;23.398;2023-04-22T02:46:12;25.50;;;24.47;;
20896;SDS011;10608;42.600;23.398;2023-04-22T02:48:37;21.03;;;20.13;;
20896;SDS011;10608;42.600;23.398;2023-04-22T02:51:03;20.93;;;20.07;;
20896;SDS011;10608;42.600;23.398;2023-04-22T02:53:30;19.83;;;18.97;;
20896;SDS011;10608;42.600;23.398;2023-04-22T02:55:55;20.73;;;19.73;;
20896;SDS011;10608;42.600;23.398;2023-04-22T02:58:21;21.83;;;20.93;;
20896;SDS011;10608;42.600;23.398;2023-04-22T03:00:46;26.90;;;25.80;;
20896;SDS011;10608;42.600;23.398;2023-04-22T03:03:11;22.43;;;21.53;;
20896;SDS011;10608;42.600;23.398;2023-04-22T03:05:37;22.57;;;21.50;;
20896;SDS011;10608;42.600;23.398;2023-04-22T03:08:02;21.10;;;20.30;;
20896;SDS011;10608;42.600;23.398;2023-04-22T03:10:27;30.07;;;28.87;;
20896;SDS011;10608;42.600;23.398;2023-04-22T03:12:52;32.07;;;30.77;;
20896;SDS011;10608;42.600;23.398;2023-04-22T03:15:18;36.43;;;34.97;;
20896;SDS011;10608;42.600;23.398;2023-04-22T03:17:43;32.80;;;31.47;;
20896;SDS011;10608;42.600;23.398;2023-04-22T03:20:08;29.83;;;28.60;;
20896;SDS011;10608;42.600;23.398;2023-04-22T03:22:34;29.77;;;28.53;;
20896;SDS011;10608;42.600;23.398;2023-04-22T03:24:59;31.90;;;30.60;;
20896;SDS011;10608;42.600;23.398;2023-04-22T03:27:25;24.67;;;23.67;;
20896;SDS011;10608;42.600;23.398;2023-04-22T03:29:50;25.17;;;24.17;;
20896;SDS011;10608;42.600;23.398;2023-04-22T03:32:15;26.57;;;25.47;;
20896;SDS011;10608;42.600;23.398;2023-04-22T03:34:40;32.40;;;30.97;;
20896;SDS011;10608;42.600;23.398;2023-04-22T03:37:06;30.03;;;28.83;;
20896;SDS011;10608;42.600;23.398;2023-04-22T03:39:31;32.23;;;30.83;;
20896;SDS011;10608;42.600;23.398;2023-04-22T03:41:56;32.93;;;31.53;;
20896;SDS011;10608;42.600;23.398;2023-04-22T03:44:21;28.70;;;27.50;;
20896;SDS011;10608;42.600;23.398;2023-04-22T03:46:47;23.43;;;22.43;;
20896;SDS011;10608;42.600;23.398;2023-04-22T03:49:12;25.53;;;24.53;;
20896;SDS011;10608;42.600;23.398;2023-04-22T03:51:37;26.70;;;25.60;;
20896;SDS011;10608;42.600;23.398;2023-04-22T03:54:02;30.33;;;29.03;;
20896;SDS011;10608;42.600;23.398;2023-04-22T03:56:28;24.53;;;23.53;;
20896;SDS011;10608;42.600;23.398;2023-04-22T03:58:53;26.30;;;25.10;;
20896;SDS011;10608;42.600;23.398;2023-04-22T04:01:18;23.67;;;22.77;;
20896;SDS011;10608;42.600;23.398;2023-04-22T04:03:43;23.60;;;22.70;;
20896;SDS011;10608;42.600;23.398;2023-04-22T04:06:09;25.03;;;23.93;;
20896;SDS011;10608;42.600;23.398;2023-04-22T04:08:34;22.77;;;21.77;;
20896;SDS011;10608;42.600;23.398;2023-04-22T04:10:59;34.10;;;32.73;;
20896;SDS011;10608;42.600;23.398;2023-04-22T04:13:24;30.47;;;29.07;;
20896;SDS011;10608;42.600;23.398;2023-04-22T04:15:50;34.70;;;33.30;;
20896;SDS011;10608;42.600;23.398;2023-04-22T04:18:16;43.10;;;41.30;;
20896;SDS011;10608;42.600;23.398;2023-04-22T04:20:42;34.30;;;32.83;;
20896;SDS011;10608;42.600;23.398;2023-04-22T04:23:07;27.40;;;26.20;;
20896;SDS011;10608;42.600;23.398;2023-04-22T04:25:32;46.10;;;44.20;;
20896;SDS011;10608;42.600;23.398;2023-04-22T04:28:05;25.27;;;24.23;;
20896;SDS011;10608;42.600;23.398;2023-04-22T04:30:33;24.27;;;23.27;;
20896;SDS011;10608;42.600;23.398;2023-04-22T04:32:58;30.27;;;28.97;;
20896;SDS011;10608;42.600;23.398;2023-04-22T04:35:24;25.93;;;24.87;;
20896;SDS011;10608;42.600;23.398;2023-04-22T04:37:49;23.27;;;22.30;;
20896;SDS011;10608;42.600;23.398;2023-04-22T04:40:14;16.13;;;15.53;;
20896;SDS011;10608;42.600;23.398;2023-04-22T04:42:40;24.90;;;23.87;;
20896;SDS011;10608;42.600;23.398;2023-04-22T04:47:31;31.53;;;30.13;;
20896;SDS011;10608;42.600;23.398;2023-04-22T04:49:58;45.20;;;43.30;;
20896;SDS011;10608;42.600;23.398;2023-04-22T04:52:23;32.30;;;30.90;;
20896;SDS011;10608;42.600;23.398;2023-04-22T04:54:48;40.73;;;39.00;;
20896;SDS011;10608;42.600;23.398;2023-04-22T04:57:13;16.40;;;15.70;;
20896;SDS011;10608;42.600;23.398;2023-04-22T04:59:38;19.30;;;18.50;;
20896;SDS011;10608;42.600;23.398;2023-04-22T05:02:04;28.43;;;27.17;;
20896;SDS011;10608;42.600;23.398;2023-04-22T05:04:29;13.70;;;13.13;;
20896;SDS011;10608;42.600;23.398;2023-04-22T05:06:54;25.70;;;24.60;;
20896;SDS011;10608;42.600;23.398;2023-04-22T05:09:20;30.37;;;29.10;;
20896;SDS011;10608;42.600;23.398;2023-04-22T05:11:45;17.20;;;16.47;;
20896;SDS011;10608;42.600;23.398;2023-04-22T05:14:10;32.30;;;30.90;;
20896;SDS011;10608;42.600;23.398;2023-04-22T05:16:35;27.73;;;26.53;;
20896;SDS011;10608;42.600;23.398;2023-04-22T05:19:01;32.63;;;31.30;;
20896;SDS011;10608;42.600;23.398;2023-04-22T05:21:26;31.60;;;30.17;;
20896;SDS011;10608;42.600;23.398;2023-04-22T05:23:51;26.10;;;25.00;;
20896;SDS011;10608;42.600;23.398;2023-04-22T05:26:16;40.30;;;38.47;;
20896;SDS011;10608;42.600;23.398;2023-04-22T05:28:42;30.47;;;28.90;;
20896;SDS011;10608;42.600;23.398;2023-04-22T05:31:07;37.87;;;36.20;;
20896;SDS011;10608;42.600;23.398;2023-04-22T05:33:32;30.93;;;29.67;;
20896;SDS011;10608;42.600;23.398;2023-04-22T05:35:57;27.00;;;25.87;;
20896;SDS011;10608;42.600;23.398;2023-04-22T05:38:23;25.27;;;24.17;;
20896;SDS011;10608;42.600;23.398;2023-04-22T05:40:48;41.10;;;39.40;;
20896;SDS011;10608;42.600;23.398;2023-04-22T05:43:13;37.97;;;36.40;;
20896;SDS011;10608;42.600;23.398;2023-04-22T05:45:39;31.83;;;30.47;;
20896;SDS011;10608;42.600;23.398;2023-04-22T05:48:04;25.27;;;24.17;;
20896;SDS011;10608;42.600;23.398;2023-04-22T05:50:29;21.77;;;20.83;;
20896;SDS011;10608;42.600;23.398;2023-04-22T05:52:55;35.63;;;34.10;;
20896;SDS011;10608;42.600;23.398;2023-04-22T05:55:20;68.73;;;65.87;;
20896;SDS011;10608;42.600;23.398;2023-04-22T05:57:45;54.73;;;52.37;;
20896;SDS011;10608;42.600;23.398;2023-04-22T06:00:10;57.93;;;55.50;;
20896;SDS011;10608;42.600;23.398;2023-04-22T06:02:36;41.00;;;39.27;;
20896;SDS011;10608;42.600;23.398;2023-04-22T06:05:01;56.50;;;54.13;;
20896;SDS011;10608;42.600;23.398;2023-04-22T06:07:26;53.57;;;51.33;;
20896;SDS011;10608;42.600;23.398;2023-04-22T06:09:51;67.57;;;64.83;;
20896;SDS011;10608;42.600;23.398;2023-04-22T06:12:17;41.57;;;39.80;;
20896;SDS011;10608;42.600;23.398;2023-04-22T06:14:42;44.90;;;43.00;;
20896;SDS011;10608;42.600;23.398;2023-04-22T06:17:08;17.47;;;16.70;;
20896;SDS011;10608;42.600;23.398;2023-04-22T06:19:33;39.70;;;38.03;;
20896;SDS011;10608;42.600;23.398;2023-04-22T06:21:59;22.90;;;21.90;;
20896;SDS011;10608;42.600;23.398;2023-04-22T06:24:24;26.20;;;25.10;;
20896;SDS011;10608;42.600;23.398;2023-04-22T06:26:49;37.70;;;36.07;;
20896;SDS011;10608;42.600;23.398;2023-04-22T06:29:14;53.70;;;51.37;;
20896;SDS011;10608;42.600;23.398;2023-04-22T06:31:40;24.17;;;23.13;;
20896;SDS011;10608;42.600;23.398;2023-04-22T06:34:05;32.77;;;31.37;;
20896;SDS011;10608;42.600;23.398;2023-04-22T06:36:30;58.80;;;56.30;;
20896;SDS011;10608;42.600;23.398;2023-04-22T06:38:57;23.43;;;22.43;;
20896;SDS011;10608;42.600;23.398;2023-04-22T06:41:23;17.83;;;17.03;;
20896;SDS011;10608;42.600;23.398;2023-04-22T06:43:48;17.20;;;16.40;;
20896;SDS011;10608;42.600;23.398;2023-04-22T06:46:14;30.67;;;29.37;;
20896;SDS011;10608;42.600;23.398;2023-04-22T06:48:39;20.37;;;18.77;;
20896;SDS011;10608;42.600;23.398;2023-04-22T06:51:05;21.37;;;20.47;;
20896;SDS011;10608;42.600;23.398;2023-04-22T06:53:30;19.50;;;18.43;;
20896;SDS011;10608;42.600;23.398;2023-04-22T06:55:55;12.80;;;12.27;;
20896;SDS011;10608;42.600;23.398;2023-04-22T06:58:20;12.20;;;11.70;;
20896;SDS011;10608;42.600;23.398;2023-04-22T07:00:46;14.07;;;13.47;;
20896;SDS011;10608;42.600;23.398;2023-04-22T07:03:11;16.90;;;16.20;;
20896;SDS011;10608;42.600;23.398;2023-04-22T07:05:36;20.47;;;19.57;;
20896;SDS011;10608;42.600;23.398;2023-04-22T07:08:01;15.87;;;15.17;;
20896;SDS011;10608;42.600;23.398;2023-04-22T07:10:27;17.07;;;16.37;;
20896;SDS011;10608;42.600;23.398;2023-04-22T07:12:52;20.23;;;19.40;;
20896;SDS011;10608;42.600;23.398;2023-04-22T07:15:17;15.57;;;14.87;;
20896;SDS011;10608;42.600;23.398;2023-04-22T07:17:43;11.13;;;10.63;;
20896;SDS011;10608;42.600;23.398;2023-04-22T07:20:08;13.57;;;13.00;;
20896;SDS011;10608;42.600;23.398;2023-04-22T07:22:33;15.63;;;15.00;;
20896;SDS011;10608;42.600;23.398;2023-04-22T07:24:59;22.07;;;21.17;;
20896;SDS011;10608;42.600;23.398;2023-04-22T07:27:24;20.70;;;19.80;;
20896;SDS011;10608;42.600;23.398;2023-04-22T07:29:49;16.60;;;15.87;;
20896;SDS011;10608;42.600;23.398;2023-04-22T07:32:15;16.03;;;15.33;;
20896;SDS011;10608;42.600;23.398;2023-04-22T07:34:40;14.53;;;13.83;;
20896;SDS011;10608;42.600;23.398;2023-04-22T07:37:05;12.53;;;11.93;;
20896;SDS011;10608;42.600;23.398;2023-04-22T07:39:31;11.30;;;10.80;;
20896;SDS011;10608;42.600;23.398;2023-04-22T07:41:56;14.47;;;13.87;;
20896;SDS011;10608;42.600;23.398;2023-04-22T07:44:22;17.90;;;17.17;;
20896;SDS011;10608;42.600;23.398;2023-04-22T07:46:48;16.03;;;15.37;;
20896;SDS011;10608;42.600;23.398;2023-04-22T07:49:14;15.73;;;15.13;;
20896;SDS011;10608;42.600;23.398;2023-04-22T07:51:40;16.00;;;15.23;;
20896;SDS011;10608;42.600;23.398;2023-04-22T07:54:06;12.47;;;11.87;;
20896;SDS011;10608;42.600;23.398;2023-04-22T07:56:31;10.93;;;10.47;;
20896;SDS011;10608;42.600;23.398;2023-04-22T07:58:57;9.53;;;9.13;;
20896;SDS011;10608;42.600;23.398;2023-04-22T08:01:22;10.87;;;10.40;;
20896;SDS011;10608;42.600;23.398;2023-04-22T08:03:47;11.90;;;11.30;;
20896;SDS011;10608;42.600;23.398;2023-04-22T08:06:12;12.93;;;12.37;;
20896;SDS011;10608;42.600;23.398;2023-04-22T08:08:38;15.10;;;14.10;;
20896;SDS011;10608;42.600;23.398;2023-04-22T08:11:03;11.20;;;10.70;;
20896;SDS011;10608;42.600;23.398;2023-04-22T08:13:29;16.70;;;15.90;;
20896;SDS011;10608;42.600;23.398;2023-04-22T08:15:54;18.07;;;17.27;;
20896;SDS011;10608;42.600;23.398;2023-04-22T08:18:19;17.70;;;17.00;;
20896;SDS011;10608;42.600;23.398;2023-04-22T08:20:45;11.17;;;10.63;;
20896;SDS011;10608;42.600;23.398;2023-04-22T08:23:11;10.30;;;9.90;;
20896;SDS011;10608;42.600;23.398;2023-04-22T08:25:36;10.20;;;9.80;;
20896;SDS011;10608;42.600;23.398;2023-04-22T08:28:01;12.60;;;12.10;;
20896;SDS011;10608;42.600;23.398;2023-04-22T08:30:27;19.13;;;17.93;;
20896;SDS011;10608;42.600;23.398;2023-04-22T08:32:52;7.83;;;7.33;;
20896;SDS011;10608;42.600;23.398;2023-04-22T08:35:17;8.53;;;8.13;;
20896;SDS011;10608;42.600;23.398;2023-04-22T08:37:43;8.83;;;8.43;;
20896;SDS011;10608;42.600;23.398;2023-04-22T08:40:08;11.60;;;11.07;;
20896;SDS011;10608;42.600;23.398;2023-04-22T08:42:33;15.90;;;15.27;;
20896;SDS011;10608;42.600;23.398;2023-04-22T08:45:00;16.20;;;15.43;;
20896;SDS011;10608;42.600;23.398;2023-04-22T08:47:26;17.37;;;16.47;;
20896;SDS011;10608;42.600;23.398;2023-04-22T08:49:53;20.40;;;19.57;;
20896;SDS011;10608;42.600;23.398;2023-04-22T08:52:19;9.67;;;9.17;;
20896;SDS011;10608;42.600;23.398;2023-04-22T08:54:45;10.67;;;10.17;;
20896;SDS011;10608;42.600;23.398;2023-04-22T08:57:10;9.47;;;9.07;;
20896;SDS011;10608;42.600;23.398;2023-04-22T08:59:36;8.03;;;7.67;;
20896;SDS011;10608;42.600;23.398;2023-04-22T09:02:02;8.67;;;8.27;;
20896;SDS011;10608;42.600;23.398;2023-04-22T09:04:28;21.53;;;20.57;;
20896;SDS011;10608;42.600;23.398;2023-04-22T09:06:54;22.07;;;21.10;;
20896;SDS011;10608;42.600;23.398;2023-04-22T09:09:20;21.97;;;20.90;;
20896;SDS011;10608;42.600;23.398;2023-04-22T09:11:45;23.13;;;22.17;;
20896;SDS011;10608;42.600;23.398;2023-04-22T09:14:10;17.80;;;16.97;;
20896;SDS011;10608;42.600;23.398;2023-04-22T09:16:39;15.37;;;14.67;;
20896;SDS011;10608;42.600;23.398;2023-04-22T09:19:09;13.13;;;12.53;;
20896;SDS011;10608;42.600;23.398;2023-04-22T09:21:35;17.17;;;16.30;;
20896;SDS011;10608;42.600;23.398;2023-04-22T09:24:00;11.67;;;11.17;;
20896;SDS011;10608;42.600;23.398;2023-04-22T09:26:26;12.93;;;12.27;;
20896;SDS011;10608;42.600;23.398;2023-04-22T09:28:52;9.97;;;9.40;;
20896;SDS011;10608;42.600;23.398;2023-04-22T09:31:18;10.60;;;10.00;;
20896;SDS011;10608;42.600;23.398;2023-04-22T09:33:48;10.47;;;9.77;;
20896;SDS011;10608;42.600;23.398;2023-04-22T09:36:13;11.80;;;11.27;;
20896;SDS011;10608;42.600;23.398;2023-04-22T09:38:39;28.83;;;27.63;;
20896;SDS011;10608;42.600;23.398;2023-04-22T09:41:10;24.07;;;23.07;;
20896;SDS011;10608;42.600;23.398;2023-04-22T09:43:36;15.10;;;14.50;;
20896;SDS011;10608;42.600;23.398;2023-04-22T09:46:02;15.37;;;14.63;;
20896;SDS011;10608;42.600;23.398;2023-04-22T09:48:27;13.53;;;12.83;;
20896;SDS011;10608;42.600;23.398;2023-04-22T09:50:52;11.87;;;11.37;;
20896;SDS011;10608;42.600;23.398;2023-04-22T09:53:19;14.20;;;13.60;;
20896;SDS011;10608;42.600;23.398;2023-04-22T09:55:45;15.03;;;14.43;;
20896;SDS011;10608;42.600;23.398;2023-04-22T09:58:15;13.67;;;12.97;;
20896;SDS011;10608;42.600;23.398;2023-04-22T10:00:47;7.40;;;7.10;;
20896;SDS011;10608;42.600;23.398;2023-04-22T10:03:13;10.70;;;10.30;;
20896;SDS011;10608;42.600;23.398;2023-04-22T10:05:38;9.33;;;8.83;;
20896;SDS011;10608;42.600;23.398;2023-04-22T10:08:05;13.17;;;12.57;;
20896;SDS011;10608;42.600;23.398;2023-04-22T10:10:31;14.23;;;13.40;;
20896;SDS011;10608;42.600;23.398;2023-04-22T10:12:56;15.60;;;14.90;;
20896;SDS011;10608;42.600;23.398;2023-04-22T10:15:22;17.83;;;17.07;;
20896;SDS011;10608;42.600;23.398;2023-04-22T10:17:48;8.30;;;7.90;;
20896;SDS011;10608;42.600;23.398;2023-04-22T10:20:16;14.53;;;13.93;;
20896;SDS011;10608;42.600;23.398;2023-04-22T10:22:42;33.60;;;32.20;;
20896;SDS011;10608;42.600;23.398;2023-04-22T10:25:12;63.10;;;60.47;;
20896;SDS011;10608;42.600;23.398;2023-04-22T10:27:37;60.33;;;57.83;;
20896;SDS011;10608;42.600;23.398;2023-04-22T10:30:03;22.90;;;21.93;;
20896;SDS011;10608;42.600;23.398;2023-04-22T10:32:28;12.87;;;12.20;;
20896;SDS011;10608;42.600;23.398;2023-04-22T10:35:07;11.13;;;10.63;;
20896;SDS011;10608;42.600;23.398;2023-04-22T10:37:33;9.77;;;9.33;;
20896;SDS011;10608;42.600;23.398;2023-04-22T10:40:13;9.17;;;8.77;;
20896;SDS011;10608;42.600;23.398;2023-04-22T10:42:40;10.63;;;10.07;;
20896;SDS011;10608;42.600;23.398;2023-04-22T10:45:05;10.10;;;9.60;;
20896;SDS011;10608;42.600;23.398;2023-04-22T10:47:34;11.47;;;10.97;;
20896;SDS011;10608;42.600;23.398;2023-04-22T10:52:38;10.47;;;10.07;;
20896;SDS011;10608;42.600;23.398;2023-04-22T10:55:03;11.30;;;10.87;;
20896;SDS011;10608;42.600;23.398;2023-04-22T10:57:30;9.53;;;9.13;;
20896;SDS011;10608;42.600;23.398;2023-04-22T11:00:03;11.80;;;11.30;;
20896;SDS011;10608;42.600;23.398;2023-04-22T11:02:39;8.80;;;8.43;;
20896;SDS011;10608;42.600;23.398;2023-04-22T11:07:49;11.53;;;11.13;;
20896;SDS011;10608;42.600;23.398;2023-04-22T11:10:34;12.80;;;12.30;;
20896;SDS011;10608;42.600;23.398;2023-04-22T11:13:01;12.93;;;12.43;;
20896;SDS011;10608;42.600;23.398;2023-04-22T11:15:27;17.87;;;17.17;;
20896;SDS011;10608;42.600;23.398;2023-04-22T11:17:53;32.03;;;30.53;;
20896;SDS011;10608;42.600;23.398;2023-04-22T11:20:19;20.20;;;19.40;;
20896;SDS011;10608;42.600;23.398;2023-04-22T11:22:49;12.80;;;12.30;;
20896;SDS011;10608;42.600;23.398;2023-04-22T11:25:15;15.03;;;14.33;;
20896;SDS011;10608;42.600;23.398;2023-04-22T11:27:40;14.00;;;13.43;;
20896;SDS011;10608;42.600;23.398;2023-04-22T11:30:11;20.30;;;19.47;;
20896;SDS011;10608;42.600;23.398;2023-04-22T11:32:38;20.77;;;19.97;;
20896;SDS011;10608;42.600;23.398;2023-04-22T11:35:04;13.47;;;12.47;;
20896;SDS011;10608;42.600;23.398;2023-04-22T11:37:30;13.87;;;13.30;;
20896;SDS011;10608;42.600;23.398;2023-04-22T11:39:58;16.30;;;15.67;;
20896;SDS011;10608;42.600;23.398;2023-04-22T11:42:24;18.13;;;17.43;;
20896;SDS011;10608;42.600;23.398;2023-04-22T11:44:49;12.10;;;11.60;;
20896;SDS011;10608;42.600;23.398;2023-04-22T11:47:15;12.30;;;11.80;;
20896;SDS011;10608;42.600;23.398;2023-04-22T11:49:40;13.47;;;12.87;;
20896;SDS011;10608;42.600;23.398;2023-04-22T11:52:06;12.90;;;12.33;;
20896;SDS011;10608;42.600;23.398;2023-04-22T11:54:32;20.00;;;19.13;;
20896;SDS011;10608;42.600;23.398;2023-04-22T11:57:05;19.83;;;19.00;;
20896;SDS011;10608;42.600;23.398;2023-04-22T11:59:30;19.00;;;18.23;;
20896;SDS011;10608;42.600;23.398;2023-04-22T12:01:56;16.27;;;15.57;;
20896;SDS011;10608;42.600;23.398;2023-04-22T12:04:21;14.53;;;13.97;;
20896;SDS011;10608;42.600;23.398;2023-04-22T12:06:46;14.17;;;13.60;;
20896;SDS011;10608;42.600;23.398;2023-04-22T12:09:12;15.93;;;15.27;;
20896;SDS011;10608;42.600;23.398;2023-04-22T12:11:37;17.60;;;16.87;;
20896;SDS011;10608;42.600;23.398;2023-04-22T12:14:06;10.83;;;10.40;;
20896;SDS011;10608;42.600;23.398;2023-04-22T12:16:41;10.17;;;9.77;;
20896;SDS011;10608;42.600;23.398;2023-04-22T12:19:06;9.87;;;9.47;;
20896;SDS011;10608;42.600;23.398;2023-04-22T12:21:31;11.37;;;10.87;;
20896;SDS011;10608;42.600;23.398;2023-04-22T12:23:57;14.03;;;13.47;;
20896;SDS011;10608;42.600;23.398;2023-04-22T12:26:29;17.93;;;17.20;;
20896;SDS011;10608;42.600;23.398;2023-04-22T12:28:55;11.27;;;10.77;;
20896;SDS011;10608;42.600;23.398;2023-04-22T12:31:21;11.90;;;11.40;;
20896;SDS011;10608;42.600;23.398;2023-04-22T12:33:47;10.80;;;10.40;;
20896;SDS011;10608;42.600;23.398;2023-04-22T12:36:12;11.20;;;10.77;;
20896;SDS011;10608;42.600;23.398;2023-04-22T12:38:37;10.53;;;10.13;;
20896;SDS011;10608;42.600;23.398;2023-04-22T12:41:03;12.03;;;11.43;;
20896;SDS011;10608;42.600;23.398;2023-04-22T12:43:29;12.50;;;9.77;;
20896;SDS011;10608;42.600;23.398;2023-04-22T12:45:56;13.70;;;13.10;;
20896;SDS011;10608;42.600;23.398;2023-04-22T12:48:22;17.80;;;16.97;;
20896;SDS011;10608;42.600;23.398;2023-04-22T12:50:47;14.90;;;14.20;;
20896;SDS011;10608;42.600;23.398;2023-04-22T12:53:12;14.83;;;14.23;;
20896;SDS011;10608;42.600;23.398;2023-04-22T12:55:37;11.07;;;10.67;;
20896;SDS011;10608;42.600;23.398;2023-04-22T12:58:03;10.07;;;9.67;;
20896;SDS011;10608;42.600;23.398;2023-04-22T13:00:28;13.70;;;13.13;;
20896;SDS011;10608;42.600;23.398;2023-04-22T13:02:53;17.90;;;17.10;;
20896;SDS011;10608;42.600;23.398;2023-04-22T13:05:18;19.23;;;18.43;;
20896;SDS011;10608;42.600;23.398;2023-04-22T13:07:44;11.17;;;10.67;;
20896;SDS011;10608;42.600;23.398;2023-04-22T13:10:11;28.80;;;27.60;;
20896;SDS011;10608;42.600;23.398;2023-04-22T13:12:36;11.83;;;11.23;;
20896;SDS011;10608;42.600;23.398;2023-04-22T13:15:02;9.80;;;9.40;;
20896;SDS011;10608;42.600;23.398;2023-04-22T13:17:27;9.90;;;9.40;;
20896;SDS011;10608;42.600;23.398;2023-04-22T13:19:52;9.23;;;8.90;;
20896;SDS011;10608;42.600;23.398;2023-04-22T13:22:18;13.37;;;12.83;;
20896;SDS011;10608;42.600;23.398;2023-04-22T13:24:43;22.40;;;21.43;;
20896;SDS011;10608;42.600;23.398;2023-04-22T13:27:09;22.20;;;21.30;;
20896;SDS011;10608;42.600;23.398;2023-04-22T13:29:35;28.50;;;27.33;;
20896;SDS011;10608;42.600;23.398;2023-04-22T13:32:01;36.13;;;34.67;;
20896;SDS011;10608;42.600;23.398;2023-04-22T13:34:26;24.87;;;23.87;;
20896;SDS011;10608;42.600;23.398;2023-04-22T13:36:51;23.40;;;22.43;;
20896;SDS011;10608;42.600;23.398;2023-04-22T13:39:17;20.00;;;19.20;;
20896;SDS011;10608;42.600;23.398;2023-04-22T13:41:43;13.30;;;12.70;;
20896;SDS011;10608;42.600;23.398;2023-04-22T13:44:12;13.20;;;12.40;;
20896;SDS011;10608;42.600;23.398;2023-04-22T13:46:38;14.10;;;13.57;;
20896;SDS011;10608;42.600;23.398;2023-04-22T13:49:03;11.83;;;11.40;;
20896;SDS011;10608;42.600;23.398;2023-04-22T13:51:29;17.60;;;16.90;;
20896;SDS011;10608;42.600;23.398;2023-04-22T13:53:54;15.83;;;15.23;;
20896;SDS011;10608;42.600;23.398;2023-04-22T13:56:20;21.37;;;20.57;;
20896;SDS011;10608;42.600;23.398;2023-04-22T13:58:45;16.37;;;15.77;;
20896;SDS011;10608;42.600;23.398;2023-04-22T14:01:10;15.40;;;14.80;;
20896;SDS011;10608;42.600;23.398;2023-04-22T14:03:36;13.10;;;12.60;;
20896;SDS011;10608;42.600;23.398;2023-04-22T14:06:01;14.93;;;14.33;;
20896;SDS011;10608;42.600;23.398;2023-04-22T14:08:27;14.10;;;13.60;;
20896;SDS011;10608;42.600;23.398;2023-04-22T14:10:53;12.97;;;12.47;;